ANDOYA/ANDENES(AFB) current weather conditions

sailwx.info

Wind from 160 at 13 knots

Air temperature 2.0° C
Visibility: greater than 5.4 NM
Dewpoint -4.0° C

Last reported at 2019-Dec-14 14:50 UTC.
Time now 2019-Dec-14 16:17 UTC

Location: N 69°18' E 016°08'.
View on Google Maps.

See reports from other nearby stations

  
Tides and Currents Weather Stations Pressure Air Temp Water Temp Dewpoint Dewpoint Depression Visibility Wind Speed Wind Dir Waves Ship Positions
date/time (UTC)wind fromknots sea level pressurealtimeterstation pressurevisibilityair tempwater tempwave heightnotes
2019-Dec-14 14:50 160 13 5.4 2.0
2019-Dec-14 14:20 150 13 5.4 2.0
2019-Dec-14 13:50 150 13 5.4 2.0
2019-Dec-14 13:20 150 13 5.4 2.0
2019-Dec-14 12:50 150 13 5.4 2.0
2019-Dec-14 12:20 150 13 5.4 2.0
2019-Dec-14 11:50 140 13 5.4 2.0
2019-Dec-14 11:20 140 12 5.4 2.0
2019-Dec-14 10:50 150 11 5.4 2.0
2019-Dec-14 10:20 150 13 5.4 1.0
2019-Dec-14 09:50 150 13 5.4 1.0
2019-Dec-14 09:20 150 13 5.4 1.0
2019-Dec-14 08:50 150 14 5.4 1.0
2019-Dec-14 08:20 150 14 5.4 1.0
2019-Dec-14 07:50 150 14 5.4 1.0
2019-Dec-14 07:20 150 13 5.4 1.0
2019-Dec-14 06:50 150 13 5.4 1.0
2019-Dec-14 06:20 150 9 5.4 1.0
2019-Dec-14 05:50 150 13 5.4 1.0
2019-Dec-14 05:20 150 13 5.4 1.0
2019-Dec-14 04:50 150 13 5.4 1.0
2019-Dec-14 04:20 150 13 5.4 1.0
2019-Dec-14 03:50 150 13 5.4 1.0
2019-Dec-14 03:20 150 13 5.4 1.0
2019-Dec-14 02:50 150 13 5.4 1.0
2019-Dec-14 02:20 150 12 5.4 2.0
2019-Dec-14 01:50 150 12 5.4 1.0
2019-Dec-14 01:20 150 11 5.4 2.0
2019-Dec-14 00:50 160 13 5.4 2.0
2019-Dec-14 00:20 160 12 5.4 2.0
2019-Dec-13 23:50 190 7 5.4 1.0
2019-Dec-13 23:20 150 11 5.4 2.0
2019-Dec-13 22:50 160 9 5.4 2.0
2019-Dec-13 22:20 160 11 5.4 2.0
2019-Dec-13 21:50 160 11 5.4 2.0
2019-Dec-13 21:20 170 9 5.4 2.0
2019-Dec-13 20:50 180 11 5.4 2.0
2019-Dec-13 20:20 150 12 5.4 2.0
2019-Dec-13 19:50 170 13 5.4 2.0
2019-Dec-13 19:20 170 8 5.4 2.0
2019-Dec-13 18:50 170 11 5.4 2.0
2019-Dec-13 18:20 170 12 5.4 2.0
2019-Dec-13 17:50 160 13 5.4 3.0
2019-Dec-13 17:20 160 13 5.4 3.0
2019-Dec-13 16:50 150 14 5.4 3.0
2019-Dec-13 16:20 160 12 5.4 3.0
2019-Dec-13 15:50 160 14 5.4 3.0
2019-Dec-13 15:20 150 13 5.4 3.0
2019-Dec-13 14:50 170 8 5.4 3.0
2019-Dec-13 14:20 180 8 5.4 2.0
2019-Dec-13 13:50 150 12 5.4 3.0
2019-Dec-13 13:20 150 13 5.4 2.0
2019-Dec-13 12:50 170 8 5.4 2.0
2019-Dec-13 12:20 170 11 5.4 2.0
2019-Dec-13 11:50 160 8 5.4 3.0
2019-Dec-13 11:20 150 13 5.4 3.0
2019-Dec-13 10:50 180 8 5.4 3.0
2019-Dec-13 10:20 180 6 5.4 3.0
2019-Dec-13 09:50 190 8 5.4 3.0
2019-Dec-13 09:20 160 11 5.4 3.0
2019-Dec-13 08:50 210 6 5.4 3.0
2019-Dec-13 08:20 160 8 5.4 3.0
2019-Dec-13 07:50 150 13 5.4 3.0
2019-Dec-13 07:20 160 12 5.4 3.0
2019-Dec-13 06:50 140 12 5.4 3.0
2019-Dec-13 06:20 150 13 5.4 3.0
2019-Dec-13 05:50 160 11 5.4 4.0
2019-Dec-13 05:20 160 13 5.4 3.0
2019-Dec-13 04:50 150 14 5.4 3.0
2019-Dec-13 04:20 150 14 5.4 3.0
2019-Dec-13 03:50 150 15 5.4 3.0
2019-Dec-13 03:20 150 14 5.4 3.0
2019-Dec-13 02:50 160 11 5.4 3.0
2019-Dec-13 02:20 170 9 5.4 3.0
2019-Dec-13 01:50 150 9 5.4 3.0
2019-Dec-13 01:20 160 13 5.4 3.0
2019-Dec-13 00:50 150 14 5.4 3.0
2019-Dec-13 00:20 150 14 5.4 4.0
2019-Dec-12 23:50 160 14 5.4 4.0
2019-Dec-12 23:20 150 13 5.4 4.0
2019-Dec-12 22:50 150 13 5.4 3.0
2019-Dec-12 22:20 150 14 5.4 4.0
2019-Dec-12 21:50 150 14 5.4 4.0
2019-Dec-12 21:20 150 15 5.4 4.0
2019-Dec-12 20:50 150 13 5.4 4.0
2019-Dec-12 20:20 150 14 5.4 4.0
2019-Dec-12 19:50 150 15 5.4 4.0
2019-Dec-12 19:20 160 18 5.4 3.0
2019-Dec-12 18:50 150 15 5.4 3.0
2019-Dec-12 18:20 160 20 5.4 3.0
2019-Dec-12 17:50 150 19 5.4 3.0
2019-Dec-12 17:20 150 18 5.4 3.0
2019-Dec-12 16:50 150 19 5.4 3.0
2019-Dec-12 16:20 150 15 5.4 3.0